Time;durP1;ratioP1;P1;durP2;ratioP2;P2;SDS_P1;SDS_P2;PMS_P1;PMS_P2;Temp;Humidity;BMP_temperature;BMP_pressure;BME280_temperature;BME280_humidity;BME280_pressure;Samples;Min_cycle;Max_cycle;Signal;HPM_P1;HPM_P2
2022/09/28 00:00:26;;;;;;;;;;;11.30;99.90;;;9.10;96.33;98721.91;10443645;28;20393;-85
2022/09/28 00:05:30;;;;;;;;;;;11.20;99.90;;;9.09;96.10;98711.53;10458265;28;20395;-85
2022/09/28 00:10:33;;;;;;;;;;;11.20;99.90;;;9.07;96.27;98710.91;10473335;28;19936;-85
2022/09/28 00:15:36;;;;;;;;;;;11.20;99.90;;;9.07;96.45;98724.16;10458454;28;19936;-85
2022/09/28 00:20:38;;;;;;;;;;;11.20;99.90;;;9.01;96.55;98715.16;10457746;28;19936;-85
2022/09/28 00:25:41;;;;;;;;;;;11.20;99.90;;;8.94;96.96;98718.78;10459297;28;19929;-85
2022/09/28 00:30:43;;;;;;;;;;;11.10;99.90;;;8.91;97.49;98713.84;10439322;28;19929;-85
2022/09/28 00:35:46;;;;;;;;;;;11.00;99.90;;;8.88;97.65;98720.38;10473140;28;19982;-85
2022/09/28 00:40:49;;;;;;;;;;;11.00;99.90;;;8.83;97.99;98728.88;10460475;28;19929;-85
2022/09/28 00:46:02;;;;;;;;;;;11.00;99.90;;;8.78;98.14;98728.63;10473044;28;20415;-85
2022/09/28 00:51:09;;;;;;;;;;;10.90;99.90;;;8.72;98.49;98726.75;10466625;28;19929;-85
2022/09/28 00:56:17;;;;;;;;;;;10.80;99.90;;;8.68;98.62;98728.13;10441720;28;19983;-85
2022/09/28 01:01:20;;;;;;;;;;;10.80;99.90;;;8.64;98.93;98723.44;10462627;28;19936;-85
2022/09/28 01:06:26;;;;;;;;;;;10.70;99.90;;;8.61;98.95;98723.81;10441096;28;19929;-86
2022/09/28 01:11:31;;;;;;;;;;;10.70;99.90;;;8.50;98.90;98733.88;10448296;28;19929;-85
2022/09/28 01:16:43;;;;;;;;;;;10.70;99.90;;;8.47;98.46;98729.00;10482165;28;19936;-85
2022/09/28 01:22:06;;;;;;;;;;;10.60;99.90;;;8.50;97.99;98739.19;10452241;28;20352;-83
2022/09/28 01:27:26;;;;;;;;;;;10.50;99.90;;;8.55;97.32;98735.97;10456261;28;19964;-83
2022/09/28 01:32:40;;;;;;;;;;;10.60;99.90;;;8.57;96.72;98748.00;10438383;28;20011;-85
2022/09/28 01:37:51;;;;;;;;;;;10.60;99.90;;;8.62;96.43;98743.97;10455425;28;20373;-85
2022/09/28 01:42:58;;;;;;;;;;;10.70;99.90;;;8.65;96.42;98731.19;10455048;28;19936;-85
2022/09/28 01:48:05;;;;;;;;;;;10.80;99.90;;;8.67;96.11;98744.22;10441149;28;19929;-85
2022/09/28 01:53:14;;;;;;;;;;;10.80;99.90;;;8.65;95.93;98744.44;10457638;28;19960;-86
2022/09/28 01:58:31;;;;;;;;;;;10.80;99.90;;;8.64;96.19;98756.03;10461614;28;19936;-86
2022/09/28 02:03:39;;;;;;;;;;;10.80;99.90;;;8.60;96.29;98754.75;10476514;28;19960;-86
2022/09/28 02:08:50;;;;;;;;;;;10.70;99.90;;;8.58;96.35;98751.50;10459322;28;20016;-85
2022/09/28 02:14:01;;;;;;;;;;;10.70;99.90;;;8.62;96.46;98755.38;10501360;28;20019;-86
2022/09/28 02:19:05;;;;;;;;;;;10.70;99.90;;;8.65;96.34;98755.00;10467461;28;20031;-85
2022/09/28 02:24:14;;;;;;;;;;;10.80;99.90;;;8.67;96.48;98766.22;10460618;28;19950;-85
2022/09/28 02:29:23;;;;;;;;;;;10.80;99.90;;;8.69;96.45;98764.19;10443628;28;19929;-86
2022/09/28 02:34:25;;;;;;;;;;;10.80;99.90;;;8.70;95.87;98755.28;10465760;28;19928;-84
2022/09/28 02:39:28;;;;;;;;;;;10.80;99.90;;;8.74;95.63;98755.69;10461779;28;19928;-84
2022/09/28 02:44:42;;;;;;;;;;;10.90;99.90;;;8.77;95.03;98750.84;10464523;28;19928;-85
2022/09/28 02:50:06;;;;;;;;;;;10.80;99.90;;;8.81;94.18;98764.50;10459681;28;20024;-85
2022/09/28 02:55:17;;;;;;;;;;;10.90;99.90;;;8.85;93.41;98763.94;10461534;28;20380;-84
2022/09/28 03:00:21;;;;;;;;;;;10.90;99.90;;;8.88;92.30;98764.59;10459519;28;19929;-85
2022/09/28 03:05:27;;;;;;;;;;;10.90;99.90;;;8.94;91.04;98771.75;10460267;28;19983;-84
2022/09/28 03:10:48;;;;;;;;;;;11.00;99.90;;;8.96;90.26;98782.97;10458772;28;19933;-84
2022/09/28 03:15:51;;;;;;;;;;;11.00;99.90;;;8.97;89.46;98768.72;10462379;28;19936;-84
2022/09/28 03:20:54;;;;;;;;;;;11.00;99.90;;;8.98;89.01;98773.81;10434617;28;19936;-84
2022/09/28 03:25:56;;;;;;;;;;;11.00;99.90;;;8.99;88.66;98769.31;10458908;28;19929;-85
2022/09/28 03:30:59;;;;;;;;;;;11.00;99.90;;;9.00;88.12;98771.81;10453510;28;19983;-84
2022/09/28 03:36:01;;;;;;;;;;;11.00;99.90;;;8.96;87.78;98772.38;10460749;28;19935;-82
2022/09/28 03:41:04;;;;;;;;;;;11.00;99.90;;;8.93;87.16;98792.09;10461847;28;20423;-83
2022/09/28 03:46:07;;;;;;;;;;;11.00;99.90;;;8.90;86.33;98781.09;10444506;28;20375;-83
2022/09/28 03:51:11;;;;;;;;;;;10.90;99.90;;;8.92;86.60;98797.59;10440513;28;19929;-83
2022/09/28 03:56:14;;;;;;;;;;;10.90;99.90;;;8.90;86.07;98791.69;10461398;28;20416;-84
2022/09/28 04:01:17;;;;;;;;;;;10.90;99.90;;;8.89;85.73;98790.88;10442830;28;19929;-84
2022/09/28 04:06:20;;;;;;;;;;;10.90;99.90;;;8.88;85.73;98786.59;10456814;28;20586;-84
2022/09/28 04:11:23;;;;;;;;;;;10.90;99.90;;;8.85;85.24;98784.31;10458527;28;19933;-86
2022/09/28 04:16:26;;;;;;;;;;;10.90;99.90;;;8.80;85.22;98795.47;10446609;28;19935;-86
2022/09/28 04:21:29;;;;;;;;;;;10.80;99.90;;;8.78;84.94;98792.19;10459247;28;19929;-84
2022/09/28 04:26:31;;;;;;;;;;;10.80;99.90;;;8.73;85.21;98797.25;10458717;28;19933;-86
2022/09/28 04:31:48;;;;;;;;;;;10.70;99.90;;;8.69;85.36;98793.31;10453973;28;19929;-87
2022/09/28 04:36:51;;;;;;;;;;;10.70;99.90;;;8.57;85.51;98781.59;10442433;28;20380;-87
2022/09/28 04:41:54;;;;;;;;;;;10.60;99.90;;;8.49;85.95;98771.16;10442512;28;19929;-88
2022/09/28 04:46:56;;;;;;;;;;;10.50;99.90;;;8.48;86.24;98788.06;10471042;28;20406;-86
2022/09/28 04:52:05;;;;;;;;;;;10.50;99.90;;;8.45;86.34;98788.41;10462897;28;19929;-85
2022/09/28 04:57:09;;;;;;;;;;;10.50;99.90;;;8.45;86.79;98791.06;10449566;28;19929;-84
2022/09/28 05:02:13;;;;;;;;;;;10.40;99.90;;;8.45;86.40;98796.34;10457938;28;20016;-83
2022/09/28 05:07:16;;;;;;;;;;;10.40;99.90;;;8.41;86.77;98800.41;10438865;28;19935;-84
2022/09/28 05:12:20;;;;;;;;;;;10.40;99.90;;;8.33;86.57;98804.75;10415255;28;19929;-85
2022/09/28 05:17:22;;;;;;;;;;;10.30;99.90;;;8.27;86.97;98802.03;10394598;28;19936;-84
2022/09/28 05:22:25;;;;;;;;;;;10.30;99.90;;;8.26;87.39;98805.69;10398778;28;19976;-84
2022/09/28 05:27:28;;;;;;;;;;;10.20;99.90;;;8.25;87.96;98804.06;10414980;28;20020;-86
2022/09/28 05:32:30;;;;;;;;;;;10.30;99.90;;;8.28;88.35;98803.72;10398004;28;19936;-85
2022/09/28 05:37:35;;;;;;;;;;;10.30;99.90;;;8.36;88.70;98800.97;10414461;28;19929;-85
2022/09/28 05:42:38;;;;;;;;;;;10.40;99.90;;;8.42;89.24;98800.22;10411380;28;19913;-85
2022/09/28 05:47:42;;;;;;;;;;;10.50;99.90;;;8.50;89.73;98813.31;10409784;28;19929;-87
2022/09/28 05:52:45;;;;;;;;;;;10.60;99.90;;;8.61;89.94;98801.41;10392639;28;20286;-88
2022/09/28 05:57:48;;;;;;;;;;;10.70;99.90;;;8.73;90.35;98805.19;10402121;28;19984;-86
2022/09/28 06:03:01;;;;;;;;;;;10.80;99.90;;;8.83;90.88;98800.41;10424996;28;19984;-83
2022/09/28 06:08:10;;;;;;;;;;;10.90;99.90;;;8.95;91.31;98795.41;10435912;28;20324;-84
2022/09/28 06:13:13;;;;;;;;;;;11.10;99.90;;;9.10;91.49;98795.31;10437793;28;19936;-84
2022/09/28 06:18:15;;;;;;;;;;;11.20;99.90;;;9.23;91.10;98789.28;10445274;28;19929;-84
2022/09/28 06:23:18;;;;;;;;;;;11.30;99.90;;;9.43;90.44;98797.38;10446166;28;19935;-85
2022/09/28 06:28:21;;;;;;;;;;;11.50;99.90;;;9.61;89.80;98792.38;10448663;28;19935;-85
2022/09/28 06:33:25;;;;;;;;;;;11.70;99.90;;;9.80;89.09;98799.63;10448239;28;20020;-83
2022/09/28 06:38:28;;;;;;;;;;;11.80;99.90;;;9.99;88.03;98805.22;10464629;28;20424;-83
2022/09/28 06:43:32;;;;;;;;;;;12.10;99.90;;;10.15;87.33;98812.84;10446686;28;19929;-84
2022/09/28 06:48:36;;;;;;;;;;;12.20;99.90;;;10.33;86.25;98805.16;10458828;28;19972;-87
2022/09/28 06:53:39;;;;;;;;;;;12.50;99.90;;;10.55;84.57;98813.78;10460441;28;20392;-85
2022/09/28 06:58:42;;;;;;;;;;;12.60;99.90;;;10.74;83.59;98816.69;10459441;28;19929;-86
2022/09/28 07:03:45;;;;;;;;;;;12.80;99.90;;;10.90;83.87;98810.97;10470900;28;20344;-85
2022/09/28 07:08:48;;;;;;;;;;;13.00;99.90;;;11.07;81.87;98820.19;10445704;28;20465;-85
2022/09/28 07:14:11;;;;;;;;;;;13.20;99.90;;;11.30;81.26;98816.28;10460437;28;19929;-88
2022/09/28 07:19:35;;;;;;;;;;;13.30;99.90;;;11.47;78.55;98820.97;10447255;28;20400;-87
2022/09/28 07:24:38;;;;;;;;;;;13.50;99.90;;;11.60;78.86;98811.34;10437801;28;19929;-87
2022/09/28 07:29:41;;;;;;;;;;;13.60;99.90;;;11.75;77.87;98806.56;10459946;28;19936;-88
2022/09/28 07:34:44;;;;;;;;;;;13.80;99.90;;;11.92;77.84;98798.97;10461290;28;19928;-86
2022/09/28 07:45:08;;;;;;;;;;;14.10;99.90;;;12.27;79.51;98791.47;10458634;28;19936;-86
2022/09/28 07:50:10;;;;;;;;;;;14.30;99.90;;;12.45;79.81;98788.91;10450878;28;19929;-85
2022/09/28 07:55:14;;;;;;;;;;;14.40;99.90;;;12.60;79.14;98785.94;10443907;28;19937;-85
2022/09/28 08:00:16;;;;;;;;;;;14.60;99.90;;;12.71;78.02;98798.56;10459454;28;19983;-86
2022/09/28 08:05:19;;;;;;;;;;;14.70;99.90;;;12.79;77.31;98795.66;10448594;28;19929;-86
2022/09/28 08:10:22;;;;;;;;;;;14.80;99.90;;;12.97;75.37;98799.41;10454149;28;19936;-84
2022/09/28 08:15:24;;;;;;;;;;;14.90;99.90;;;13.10;75.62;98802.78;10457860;28;20415;-86
2022/09/28 08:25:53;;;;;;;;;;;15.20;99.90;;;13.45;75.86;98798.81;10471393;28;20314;-86
2022/09/28 08:30:59;;;;;;;;;;;15.40;99.90;;;13.60;74.39;98792.06;10455828;28;20420;-86
2022/09/28 08:36:05;;;;;;;;;;;15.60;99.90;;;13.82;75.32;98779.13;10468654;28;20446;-86
2022/09/28 08:41:34;;;;;;;;;;;15.80;99.90;;;14.13;75.74;98762.09;10438201;28;19929;-86
2022/09/28 08:46:44;;;;;;;;;;;16.10;99.90;;;14.36;74.76;98749.88;10458398;28;20384;-86
2022/09/28 08:52:02;;;;;;;;;;;16.30;99.90;;;14.52;73.32;98759.13;10456653;28;19929;-85
2022/09/28 08:57:09;;;;;;;;;;;16.50;99.90;;;14.69;72.30;98762.75;10455936;28;19936;-86
2022/09/28 09:02:21;;;;;;;;;;;16.60;99.90;;;14.85;70.39;98761.28;10440735;28;19936;-89
2022/09/28 09:07:43;;;;;;;;;;;16.80;99.90;;;14.99;69.38;98758.19;10467627;28;20668;-85
2022/09/28 09:12:48;;;;;;;;;;;16.90;99.90;;;15.05;68.76;98756.41;10443253;28;20397;-86
2022/09/28 09:18:36;;;;;;;;;;;17.00;99.90;;;15.26;69.39;98750.50;10450991;28;19963;-88
2022/09/28 09:23:53;;;;;;;;;;;17.20;99.90;;;15.53;68.25;98764.22;10345420;28;19937;-85
2022/09/28 09:29:06;;;;;;;;;;;17.50;99.70;;;15.60;66.45;98764.09;10451420;28;20316;-85
2022/09/28 09:34:33;;;;;;;;;;;17.60;99.90;;;15.68;66.46;98755.72;10458166;28;19929;-85
2022/09/28 09:39:38;;;;;;;;;;;17.70;99.70;;;16.35;65.01;98754.34;10458722;28;19929;-85
2022/09/28 09:45:17;;;;;;;;;;;18.10;99.80;;;16.76;62.44;98751.34;10455465;28;19929;-85
2022/09/28 09:50:29;;;;;;;;;;;18.40;98.10;;;16.81;61.83;98759.47;10402374;28;19929;-87
2022/09/28 09:55:45;;;;;;;;;;;18.50;96.70;;;16.29;59.63;98759.59;10459679;28;19929;-85
2022/09/28 10:00:51;;;;;;;;;;;18.20;96.10;;;15.76;60.92;98768.72;10459323;28;19929;-86
2022/09/28 10:06:02;;;;;;;;;;;17.70;96.30;;;15.37;62.77;98772.94;10458247;28;19928;-85
2022/09/28 10:11:44;;;;;;;;;;;17.30;96.80;;;15.06;63.00;98767.94;10457208;28;19933;-85
2022/09/28 10:16:48;;;;;;;;;;;17.10;96.80;;;14.91;64.89;98768.38;10361735;28;19936;-85
2022/09/28 10:21:52;;;;;;;;;;;16.80;97.90;;;15.00;66.28;98769.69;10455768;28;20035;-85
2022/09/28 10:26:57;;;;;;;;;;;16.90;98.40;;;14.97;63.95;98778.16;10418003;28;19934;-84
2022/09/28 10:32:01;;;;;;;;;;;16.90;97.50;;;14.88;63.50;98769.66;10440024;28;19929;-82
2022/09/28 10:37:08;;;;;;;;;;;16.80;96.50;;;14.89;66.17;98773.97;10441540;28;19929;-84
2022/09/28 10:42:16;;;;;;;;;;;16.90;97.60;;;15.00;66.26;98761.66;10505813;28;19928;-84
2022/09/28 10:47:21;;;;;;;;;;;16.90;97.70;;;15.31;65.12;98762.38;10511743;28;20392;-87
2022/09/28 10:52:41;;;;;;;;;;;17.20;97.20;;;15.41;63.91;98763.41;10468227;28;19936;-85
2022/09/28 10:57:44;;;;;;;;;;;17.40;96.50;;;15.40;64.57;98761.75;10464164;28;19929;-84
2022/09/28 11:02:46;;;;;;;;;;;17.40;97.00;;;15.36;64.69;98760.63;10447576;28;19936;-83
2022/09/28 11:07:51;;;;;;;;;;;17.40;96.60;;;15.61;65.35;98746.97;10463421;28;19935;-84
2022/09/28 11:12:54;;;;;;;;;;;17.60;96.80;;;16.04;64.19;98727.78;10446912;28;19936;-83
2022/09/28 11:18:25;;;;;;;;;;;18.00;96.50;;;16.49;63.72;98729.69;10462715;28;19936;-84
2022/09/28 11:23:29;;;;;;;;;;;18.50;96.60;;;16.94;63.17;98717.28;10448858;28;20023;-84
2022/09/28 11:28:37;;;;;;;;;;;19.10;95.40;;;17.10;61.54;98721.81;10463196;28;20418;-83
2022/09/28 11:33:45;;;;;;;;;;;19.50;93.70;;;17.04;60.53;98730.84;10464032;28;19936;-82
2022/09/28 11:39:07;;;;;;;;;;;19.40;92.90;;;17.15;59.09;98715.69;10462551;28;19929;-82
2022/09/28 11:44:43;;;;;;;;;;;19.50;91.80;;;17.34;59.25;98730.50;10463961;28;20412;-84
2022/09/28 11:49:47;;;;;;;;;;;19.70;92.90;;;17.72;58.93;98716.22;10461790;28;19979;-83
2022/09/28 11:54:55;;;;;;;;;;;20.00;92.70;;;18.00;57.38;98699.09;10452265;28;19978;-83
2022/09/28 12:00:01;;;;;;;;;;;20.30;90.70;;;18.02;56.53;98685.41;10476192;28;19933;-85
2022/09/28 12:05:15;;;;;;;;;;;20.40;90.10;;;18.09;56.12;98686.81;10448123;28;19979;-84
2022/09/28 12:10:55;;;;;;;;;;;20.40;89.50;;;18.06;55.94;98681.16;10427862;28;19933;-84
2022/09/28 12:16:02;;;;;;;;;;;20.30;87.10;;;17.69;56.60;98673.72;10456013;28;19929;-84
2022/09/28 12:21:35;;;;;;;;;;;19.90;88.20;;;17.33;57.65;98670.63;10446815;28;19936;-86
2022/09/28 12:26:45;;;;;;;;;;;19.50;89.30;;;17.09;57.99;98666.50;10498700;28;20378;-86
2022/09/28 12:32:11;;;;;;;;;;;19.20;89.60;;;16.95;58.74;98657.19;10463487;28;19929;-85
2022/09/28 12:37:23;;;;;;;;;;;19.00;90.60;;;16.94;58.84;98658.25;10458979;28;19972;-85
2022/09/28 12:42:56;;;;;;;;;;;18.90;90.40;;;16.93;59.37;98659.31;10469344;28;19929;-84
2022/09/28 12:48:34;;;;;;;;;;;18.90;90.90;;;16.76;57.31;98653.97;10469430;28;20301;-86
2022/09/28 12:53:56;;;;;;;;;;;18.80;87.80;;;16.33;57.34;98661.56;10454462;28;19936;-84
2022/09/28 12:58:59;;;;;;;;;;;18.50;87.80;;;16.06;58.96;98665.91;10427956;28;19929;-84
2022/09/28 13:04:43;;;;;;;;;;;18.10;90.20;;;15.94;62.23;98657.09;10469264;28;19992;-84
2022/09/28 13:09:54;;;;;;;;;;;17.90;90.50;;;15.90;62.88;98661.34;10456398;28;20396;-85
2022/09/28 13:15:20;;;;;;;;;;;17.90;91.10;;;15.85;62.99;98664.72;10459123;28;19929;-86
2022/09/28 13:20:41;;;;;;;;;;;17.90;91.60;;;15.86;61.75;98660.19;10454337;28;19936;-86
2022/09/28 13:25:55;;;;;;;;;;;17.80;91.00;;;15.84;61.31;98659.63;10459813;28;20332;-83
2022/09/28 13:30:59;;;;;;;;;;;17.80;91.20;;;15.74;60.89;98657.56;10471700;28;19929;-86
2022/09/28 13:36:23;;;;;;;;;;;17.70;90.80;;;15.69;61.69;98660.13;10456653;28;19929;-87
2022/09/28 13:41:36;;;;;;;;;;;17.70;91.70;;;15.69;61.73;98652.91;10467273;28;19929;-90
2022/09/28 13:47:24;;;;;;;;;;;17.60;91.10;;;15.69;60.93;98652.91;10447321;28;20090;-89
2022/09/28 13:52:56;;;;;;;;;;;17.70;91.20;;;15.82;60.36;98638.41;10418176;28;19929;-86
2022/09/28 13:58:23;;;;;;;;;;;17.70;90.40;;;15.90;59.83;98647.94;10453338;28;19929;-87
2022/09/28 14:03:44;;;;;;;;;;;17.80;90.70;;;15.93;61.03;98639.41;10457204;28;20020;-84
2022/09/28 14:09:12;;;;;;;;;;;17.90;90.70;;;15.90;61.32;98645.25;10459191;28;20381;-93
2022/09/28 14:14:15;;;;;;;;;;;17.90;90.20;;;15.97;60.85;98645.94;10463316;28;19928;-88
2022/09/28 14:19:19;;;;;;;;;;;17.90;90.70;;;15.98;60.39;98634.97;10462597;28;19929;-95
2022/09/28 14:25:00;;;;;;;;;;;18.00;90.40;;;15.95;59.50;98648.00;10463242;28;19929;-91
2022/09/28 14:30:06;;;;;;;;;;;17.90;90.20;;;15.87;59.75;98645.72;10462687;28;20352;-82
2022/09/28 14:35:16;;;;;;;;;;;17.90;90.10;;;15.75;59.16;98643.91;10464921;28;20467;-84
2022/09/28 14:41:08;;;;;;;;;;;17.80;88.90;;;15.63;59.08;98629.75;10489255;28;19935;-82
2022/09/28 14:46:13;;;;;;;;;;;17.60;88.80;;;15.52;59.35;98633.25;10462870;28;19929;-82
2022/09/28 14:51:36;;;;;;;;;;;17.50;90.10;;;15.48;59.96;98629.44;10452084;28;20027;-82
2022/09/28 14:57:06;;;;;;;;;;;17.40;90.40;;;15.44;60.77;98625.59;10464066;28;19929;-82
2022/09/28 15:02:09;;;;;;;;;;;17.40;90.80;;;15.40;61.00;98613.75;10475295;28;19929;-82
2022/09/28 15:07:46;;;;;;;;;;;17.40;91.00;;;15.38;61.44;98621.19;10460474;28;19932;-84
2022/09/28 15:12:52;;;;;;;;;;;17.40;90.90;;;15.34;62.46;98620.03;10446694;28;19951;-84
2022/09/28 15:18:15;;;;;;;;;;;17.30;90.70;;;15.30;62.60;98625.06;10441544;28;19959;-85
2022/09/28 15:23:33;;;;;;;;;;;17.30;91.00;;;15.26;62.03;98611.34;10462510;28;19929;-84
2022/09/28 15:28:43;;;;;;;;;;;17.30;91.10;;;15.26;61.78;98613.19;10464523;28;19929;-84
2022/09/28 15:39:17;;;;;;;;;;;17.30;91.50;;;15.27;61.68;98612.97;10464175;28;19929;-85
2022/09/28 15:44:31;;;;;;;;;;;17.30;90.80;;;15.24;62.36;98621.47;10461367;28;19928;-84
2022/09/28 15:49:44;;;;;;;;;;;17.20;91.60;;;15.18;62.63;98619.75;10463467;28;19929;-85
2022/09/28 15:54:47;;;;;;;;;;;17.20;91.60;;;15.13;62.64;98622.31;10460944;28;19979;-85
2022/09/28 15:59:55;;;;;;;;;;;17.10;91.90;;;15.08;63.57;98621.38;10460561;28;20015;-84
2022/09/28 16:05:03;;;;;;;;;;;17.10;92.40;;;15.03;63.86;98614.06;10447889;28;20444;-85
2022/09/28 16:10:10;;;;;;;;;;;17.00;92.40;;;14.95;64.37;98619.78;10463199;28;19975;-85
2022/09/28 16:15:26;;;;;;;;;;;16.90;92.30;;;14.88;65.57;98621.78;10463079;28;19932;-83
2022/09/28 16:20:32;;;;;;;;;;;16.90;93.20;;;14.80;66.46;98625.59;10445569;28;19935;-84
2022/09/28 16:25:38;;;;;;;;;;;16.80;93.40;;;14.71;66.39;98627.81;10460455;28;19929;-84
2022/09/28 16:30:58;;;;;;;;;;;16.70;93.40;;;14.65;65.06;98623.41;10461122;28;19929;-85
2022/09/28 16:36:02;;;;;;;;;;;16.70;92.50;;;14.58;65.21;98624.56;10448062;28;19929;-85
2022/09/28 16:41:05;;;;;;;;;;;16.60;93.00;;;14.52;65.25;98626.31;10456301;28;19935;-84
2022/09/28 16:46:13;;;;;;;;;;;16.50;93.10;;;14.50;66.22;98636.38;10461728;28;19929;-85
2022/09/28 16:51:19;;;;;;;;;;;16.50;93.70;;;14.45;66.28;98636.22;10457075;28;19929;-85
2022/09/28 16:56:22;;;;;;;;;;;16.50;93.60;;;14.40;66.11;98634.28;10441527;28;19936;-85
2022/09/28 17:01:24;;;;;;;;;;;16.40;93.60;;;14.39;66.42;98634.47;10461450;28;19936;-85
2022/09/28 17:06:27;;;;;;;;;;;16.40;93.60;;;14.33;66.85;98632.72;10460527;28;19932;-85
2022/09/28 17:11:30;;;;;;;;;;;16.40;94.20;;;14.31;66.80;98640.16;10444059;28;19936;-86
2022/09/28 17:16:34;;;;;;;;;;;16.30;94.10;;;14.27;67.86;98636.31;10454222;28;19933;-85
2022/09/28 17:21:57;;;;;;;;;;;16.30;94.20;;;14.26;68.82;98629.34;10452317;28;19929;-84
2022/09/28 17:27:02;;;;;;;;;;;16.30;94.10;;;14.25;69.37;98633.88;10449490;28;19964;-88
2022/09/28 17:32:15;;;;;;;;;;;16.30;94.60;;;14.21;69.61;98627.38;10465600;28;20046;-89
2022/09/28 17:37:18;;;;;;;;;;;16.30;94.50;;;14.19;69.21;98632.13;10469505;28;19936;-88
2022/09/28 17:42:21;;;;;;;;;;;16.20;94.90;;;14.19;68.50;98640.97;10471953;28;19928;-85
2022/09/28 17:47:23;;;;;;;;;;;16.20;94.80;;;14.20;68.48;98642.59;10460609;28;19929;-88
2022/09/28 17:52:26;;;;;;;;;;;16.20;94.60;;;14.19;67.74;98638.28;10471865;28;19937;-86
2022/09/28 17:57:29;;;;;;;;;;;16.20;94.30;;;14.18;68.15;98643.88;10473074;28;19933;-87
2022/09/28 18:02:32;;;;;;;;;;;16.20;95.00;;;14.14;69.32;98648.84;10465221;28;20320;-88
2022/09/28 18:07:37;;;;;;;;;;;16.20;95.20;;;14.09;70.89;98662.09;10484192;28;20024;-88
2022/09/28 18:12:40;;;;;;;;;;;16.10;95.90;;;14.00;72.37;98657.28;10469934;28;20032;-88
2022/09/28 18:17:43;;;;;;;;;;;16.00;96.70;;;13.86;73.71;98662.81;10468164;28;19929;-88
2022/09/28 18:22:45;;;;;;;;;;;15.90;97.20;;;13.74;75.29;98661.16;10468740;28;19929;-87
2022/09/28 18:27:48;;;;;;;;;;;15.80;97.70;;;13.59;77.02;98673.00;10450429;28;19929;-87
2022/09/28 18:32:51;;;;;;;;;;;15.60;98.70;;;13.45;78.13;98670.75;10450672;28;19929;-86
2022/09/28 18:37:54;;;;;;;;;;;15.50;99.10;;;13.32;79.56;98671.72;10466258;28;19929;-86
2022/09/28 18:42:57;;;;;;;;;;;15.30;99.60;;;13.20;80.48;98676.13;10465045;28;20392;-86
2022/09/28 18:48:00;;;;;;;;;;;15.20;99.90;;;13.08;81.24;98682.19;10461148;28;19933;-86
2022/09/28 18:53:11;;;;;;;;;;;15.10;99.90;;;13.00;81.90;98687.78;10456234;28;19929;-85
2022/09/28 18:58:14;;;;;;;;;;;14.90;99.90;;;12.89;83.00;98693.84;10462800;28;19929;-84
2022/09/28 19:03:17;;;;;;;;;;;14.90;99.90;;;12.80;83.97;98689.84;10459866;28;19970;-85
2022/09/28 19:08:20;;;;;;;;;;;14.80;99.90;;;12.72;85.00;98698.13;10457167;28;21571;-84
2022/09/28 19:13:29;;;;;;;;;;;14.70;99.90;;;12.64;85.99;98693.03;10467395;28;19929;-84
2022/09/28 19:18:32;;;;;;;;;;;14.60;99.90;;;12.55;87.07;98698.66;10476369;28;19975;-84
2022/09/28 19:23:35;;;;;;;;;;;14.50;99.90;;;12.49;87.59;98694.19;10463148;28;19929;-85
2022/09/28 19:28:38;;;;;;;;;;;14.50;99.90;;;12.45;88.54;98692.19;10463278;28;19936;-85
2022/09/28 19:33:41;;;;;;;;;;;14.40;99.90;;;12.40;89.17;98687.50;10444108;28;20316;-85
2022/09/28 19:38:44;;;;;;;;;;;14.30;99.90;;;12.38;89.75;98686.91;10463529;28;19978;-85
2022/09/28 19:43:47;;;;;;;;;;;14.30;99.90;;;12.37;90.45;98692.44;10477455;28;19929;-86
2022/09/28 19:48:49;;;;;;;;;;;14.30;99.90;;;12.33;90.86;98686.72;10433891;28;20348;-85
2022/09/28 19:53:52;;;;;;;;;;;14.30;99.90;;;12.33;91.62;98684.06;10458184;28;20316;-85
2022/09/28 19:58:55;;;;;;;;;;;14.30;99.90;;;12.30;92.29;98685.31;10460689;28;19929;-85
2022/09/28 20:03:59;;;;;;;;;;;14.30;99.90;;;12.28;92.65;98681.22;10459759;28;20411;-85
2022/09/28 20:09:02;;;;;;;;;;;14.20;99.90;;;12.26;93.36;98689.44;10451327;28;19932;-84
2022/09/28 20:14:09;;;;;;;;;;;14.20;99.90;;;12.25;93.91;98687.00;10453945;28;19929;-85
2022/09/28 20:19:12;;;;;;;;;;;14.20;99.90;;;12.24;94.31;98680.03;10459339;28;19936;-85
2022/09/28 20:24:15;;;;;;;;;;;14.20;99.90;;;12.22;94.98;98676.75;10458491;28;19932;-85
2022/09/28 20:29:19;;;;;;;;;;;14.20;99.90;;;12.20;95.45;98681.50;10459430;28;20408;-85
2022/09/28 20:34:21;;;;;;;;;;;14.20;99.90;;;12.20;95.91;98673.50;10454314;28;19952;-85
2022/09/28 20:39:24;;;;;;;;;;;14.20;99.90;;;12.18;96.25;98675.56;10459116;28;19929;-85
2022/09/28 20:44:27;;;;;;;;;;;14.20;99.90;;;12.19;96.73;98677.22;10452463;28;20308;-85
2022/09/28 20:49:30;;;;;;;;;;;14.20;99.90;;;12.18;96.95;98676.41;10461131;28;19928;-86
2022/09/28 20:54:33;;;;;;;;;;;14.20;99.90;;;12.17;97.46;98673.91;10458128;28;20028;-86
2022/09/28 20:59:36;;;;;;;;;;;14.10;99.90;;;12.15;97.67;98647.50;10456961;28;19935;-87
2022/09/28 21:04:40;;;;;;;;;;;14.10;99.90;;;12.14;98.23;98651.22;10456058;28;20344;-86
2022/09/28 21:09:42;;;;;;;;;;;14.10;99.90;;;12.10;98.47;98657.19;10456695;28;20020;-85
2022/09/28 21:14:45;;;;;;;;;;;14.10;99.90;;;12.10;99.08;98658.00;10464337;28;19936;-86
2022/09/28 21:19:48;;;;;;;;;;;14.00;99.90;;;12.05;99.12;98650.66;10457185;28;19968;-86
2022/09/28 21:24:51;;;;;;;;;;;14.00;99.90;;;12.07;99.43;98641.66;10455535;28;19932;-86
2022/09/28 21:29:54;;;;;;;;;;;14.00;99.90;;;12.05;99.75;98642.69;10457569;28;19929;-85
2022/09/28 21:34:57;;;;;;;;;;;14.00;99.90;;;12.03;99.99;98636.75;10453561;28;20395;-86
2022/09/28 21:40:01;;;;;;;;;;;14.00;99.90;;;12.00;99.87;98642.50;10450990;28;19968;-86
2022/09/28 21:45:04;;;;;;;;;;;13.90;99.90;;;11.99;100.00;98648.03;10440026;28;19936;-86
2022/09/28 21:50:07;;;;;;;;;;;13.90;99.90;;;11.94;100.00;98648.69;10454287;28;20412;-86
2022/09/28 21:55:10;;;;;;;;;;;13.90;99.90;;;11.93;100.00;98647.03;10466652;28;19929;-86
2022/09/28 22:00:15;;;;;;;;;;;13.80;99.90;;;11.90;100.00;98649.31;10450328;28;19936;-86
2022/09/28 22:05:18;;;;;;;;;;;13.80;99.90;;;11.87;100.00;98642.56;10453042;28;20307;-86
2022/09/28 22:10:20;;;;;;;;;;;13.80;99.90;;;11.85;100.00;98644.63;10449245;28;20046;-87
2022/09/28 22:15:23;;;;;;;;;;;13.80;99.90;;;11.82;100.00;98637.09;10451669;28;20297;-87
2022/09/28 22:20:26;;;;;;;;;;;13.70;99.90;;;11.83;100.00;98645.91;10458801;28;20319;-86
2022/09/28 22:25:29;;;;;;;;;;;13.70;99.90;;;11.84;100.00;98640.34;10456532;28;19937;-87
2022/09/28 22:30:33;;;;;;;;;;;13.70;99.90;;;11.81;100.00;98635.44;10462862;28;19929;-85
2022/09/28 22:35:35;;;;;;;;;;;13.70;99.90;;;11.78;100.00;98643.84;10464623;28;20351;-86
2022/09/28 22:40:45;;;;;;;;;;;13.70;99.90;;;11.75;100.00;98642.44;10445329;28;19929;-86
2022/09/28 22:45:49;;;;;;;;;;;13.70;99.90;;;11.74;100.00;98637.28;10462495;28;20256;-86
2022/09/28 22:50:51;;;;;;;;;;;13.60;99.90;;;11.70;100.00;98631.59;10464704;28;19929;-86
2022/09/28 22:55:55;;;;;;;;;;;13.60;99.90;;;11.69;100.00;98637.13;10450835;28;20412;-85
2022/09/28 23:01:28;;;;;;;;;;;13.60;99.90;;;11.64;100.00;98631.66;10460238;28;20019;-86
2022/09/28 23:06:32;;;;;;;;;;;13.60;99.90;;;11.63;100.00;98630.78;10463079;28;19929;-86
2022/09/28 23:11:34;;;;;;;;;;;13.60;99.90;;;11.65;100.00;98633.25;10460601;28;19929;-86
2022/09/28 23:16:37;;;;;;;;;;;13.60;99.90;;;11.63;100.00;98637.97;10457916;28;20035;-85
2022/09/28 23:21:40;;;;;;;;;;;13.60;99.90;;;11.61;100.00;98632.88;10443458;28;19936;-84
2022/09/28 23:26:42;;;;;;;;;;;13.60;99.90;;;11.62;100.00;98637.16;10467383;28;19935;-85
2022/09/28 23:31:45;;;;;;;;;;;13.50;99.90;;;11.61;100.00;98624.88;10461450;28;19929;-85
2022/09/28 23:36:50;;;;;;;;;;;13.50;99.90;;;11.59;100.00;98624.28;10455693;28;20491;-85
2022/09/28 23:41:53;;;;;;;;;;;13.50;99.90;;;11.57;100.00;98622.84;10440066;28;19980;-86